createdAt,value
2019-04-14T00:02:55.476Z,34.80
2019-04-14T00:08:00.347Z,35.77
2019-04-14T00:13:05.130Z,34.90
2019-04-14T00:18:09.744Z,54.23
2019-04-14T00:23:15.158Z,42.67
2019-04-14T00:28:20.649Z,37.03
2019-04-14T00:33:28.022Z,36.40
2019-04-14T00:38:34.613Z,39.13
2019-04-14T00:43:49.227Z,35.13
2019-04-14T00:48:54.025Z,36.40
2019-04-14T00:54:00.215Z,36.93
2019-04-14T00:59:07.029Z,34.00
2019-04-14T01:04:12.238Z,34.90
2019-04-14T01:09:17.250Z,32.70
2019-04-14T01:14:21.773Z,33.47
2019-04-14T01:19:26.630Z,33.43
2019-04-14T01:24:31.568Z,34.83
2019-04-14T01:29:36.319Z,35.77
2019-04-14T01:34:41.764Z,32.70
2019-04-14T01:39:46.275Z,31.30
2019-04-14T01:44:50.725Z,32.00
2019-04-14T01:49:55.247Z,30.57
2019-04-14T01:55:17.754Z,30.63
2019-04-14T02:00:44.413Z,33.33
2019-04-14T02:05:49.605Z,29.80
2019-04-14T02:10:54.429Z,32.97
2019-04-14T02:16:12.849Z,28.10
2019-04-14T02:21:06.356Z,29.35
2019-04-14T02:26:11.290Z,29.90
2019-04-14T02:31:39.399Z,29.77
2019-04-14T02:36:47.941Z,30.43
2019-04-14T02:42:06.862Z,29.03
2019-04-14T02:47:12.356Z,26.47
2019-04-14T02:52:13.933Z,29.13
2019-04-14T02:57:19.975Z,25.73
2019-04-14T03:07:30.264Z,28.17
2019-04-14T03:12:34.680Z,27.50
2019-04-14T03:18:20.488Z,26.90
2019-04-14T03:23:14.943Z,25.10
2019-04-14T03:28:27.718Z,24.20
2019-04-14T03:38:50.243Z,24.57
2019-04-14T03:43:38.791Z,23.80
2019-04-14T03:53:55.955Z,21.60
2019-04-14T03:58:35.744Z,23.27
2019-04-14T04:03:41.357Z,22.67
2019-04-14T04:08:46.442Z,21.33
2019-04-14T04:13:52.000Z,22.03
2019-04-14T04:19:05.655Z,19.97
2019-04-14T04:24:12.870Z,24.03
2019-04-14T04:29:22.334Z,34.47
2019-04-14T04:34:31.652Z,32.57
2019-04-14T04:39:38.659Z,23.77
2019-04-14T04:44:44.218Z,22.57
2019-04-14T04:49:49.049Z,19.83
2019-04-14T04:54:53.858Z,21.97
2019-04-14T04:59:58.409Z,20.83
2019-04-14T05:05:03.573Z,19.27
2019-04-14T05:10:13.185Z,20.40
2019-04-14T05:15:20.484Z,19.13
2019-04-14T05:20:25.124Z,18.85
2019-04-14T05:25:29.744Z,21.10
2019-04-14T05:30:35.005Z,18.77
2019-04-14T05:35:40.136Z,23.17
2019-04-14T05:40:45.085Z,20.23
2019-04-14T05:45:50.168Z,19.17
2019-04-14T05:50:55.497Z,20.17
2019-04-14T05:55:59.980Z,19.17
2019-04-14T06:01:04.861Z,17.10
2019-04-14T06:06:09.265Z,19.00
2019-04-14T06:11:13.909Z,17.90
2019-04-14T06:16:18.413Z,20.10
2019-04-14T06:21:23.031Z,20.30
2019-04-14T06:26:27.523Z,18.83
2019-04-14T06:31:45.822Z,21.57
2019-04-14T06:36:52.963Z,18.07
2019-04-14T06:41:57.506Z,21.77
2019-04-14T06:47:02.259Z,21.50
2019-04-14T06:52:08.042Z,20.73
2019-04-14T06:57:12.637Z,20.90
2019-04-14T07:02:17.096Z,22.93
2019-04-14T07:07:21.724Z,30.63
2019-04-14T07:12:27.956Z,18.90
2019-04-14T07:17:32.405Z,18.00
2019-04-14T07:22:37.055Z,17.70
2019-04-14T07:27:41.528Z,18.03
2019-04-14T07:32:50.420Z,14.97
2019-04-14T07:37:56.647Z,17.53
2019-04-14T07:43:05.840Z,18.57
2019-04-14T07:48:12.032Z,18.33
2019-04-14T07:53:26.992Z,16.87
2019-04-14T07:58:33.111Z,16.50
2019-04-14T08:03:41.250Z,15.07
2019-04-14T08:08:45.785Z,20.07
2019-04-14T08:13:50.365Z,16.57
2019-04-14T08:18:55.022Z,15.60
2019-04-14T08:23:59.524Z,17.57
2019-04-14T08:29:04.137Z,15.83
2019-04-14T08:34:08.545Z,16.00
2019-04-14T08:39:13.052Z,16.57
2019-04-14T08:44:31.082Z,16.83
2019-04-14T08:49:49.304Z,18.27
2019-04-14T08:54:55.395Z,15.47
2019-04-14T09:00:18.056Z,15.83
2019-04-14T09:05:40.522Z,17.03
2019-04-14T09:11:02.062Z,18.77
2019-04-14T09:16:06.581Z,16.90
2019-04-14T09:21:11.138Z,21.23
2019-04-14T09:26:15.724Z,19.27
2019-04-14T09:31:20.199Z,19.60
2019-04-14T09:36:24.684Z,16.20
2019-04-14T09:41:29.236Z,19.23
2019-04-14T09:46:34.769Z,16.83
2019-04-14T09:51:39.408Z,16.43
2019-04-14T09:56:44.047Z,16.87
2019-04-14T10:01:48.735Z,18.73
2019-04-14T10:06:53.304Z,17.03
2019-04-14T10:11:57.839Z,20.27
2019-04-14T10:17:02.427Z,16.07
2019-04-14T10:22:07.897Z,16.83
2019-04-14T10:27:14.815Z,15.67
2019-04-14T10:32:19.270Z,15.77
2019-04-14T10:37:23.877Z,13.57
2019-04-14T10:42:28.476Z,13.70
2019-04-14T10:47:33.081Z,15.60
2019-04-14T10:52:37.618Z,15.43
2019-04-14T10:57:42.083Z,17.03
2019-04-14T11:02:46.733Z,15.30
2019-04-14T11:07:51.302Z,15.80
2019-04-14T11:12:56.850Z,14.27
2019-04-14T11:18:01.368Z,13.77
2019-04-14T11:23:05.897Z,14.53
2019-04-14T11:28:10.485Z,16.87
2019-04-14T11:33:16.728Z,14.53
2019-04-14T11:38:28.369Z,16.80
2019-04-14T11:43:33.109Z,15.73
2019-04-14T11:48:37.637Z,16.43
2019-04-14T11:53:42.331Z,14.90
2019-04-14T11:58:46.935Z,14.27
2019-04-14T12:03:53.133Z,14.20
2019-04-14T12:09:17.819Z,16.73
2019-04-14T12:14:22.293Z,13.50
2019-04-14T12:19:26.836Z,14.60
2019-04-14T12:24:31.441Z,13.50
2019-04-14T12:29:36.888Z,14.20
2019-04-14T12:34:41.539Z,14.57
2019-04-14T12:39:47.211Z,13.73
2019-04-14T12:44:56.053Z,12.47
2019-04-14T12:50:07.906Z,11.67
2019-04-14T12:55:13.397Z,15.33
2019-04-14T13:00:35.568Z,14.15
2019-04-14T13:05:40.042Z,11.90
2019-04-14T13:10:44.594Z,11.17
2019-04-14T13:15:49.067Z,13.47
2019-04-14T13:20:53.673Z,12.30
2019-04-14T13:25:58.253Z,11.73
2019-04-14T13:31:02.776Z,11.90
2019-04-14T13:36:07.357Z,11.43
2019-04-14T13:41:12.180Z,13.20
2019-04-14T13:46:16.793Z,10.20
2019-04-14T13:51:21.463Z,11.77
2019-04-14T13:56:26.147Z,10.50
2019-04-14T14:01:30.816Z,10.10
2019-04-14T14:06:36.456Z,12.80
2019-04-14T14:11:54.426Z,12.13
2019-04-14T14:17:03.143Z,11.57
2019-04-14T14:22:09.349Z,10.20
2019-04-14T14:27:14.024Z,10.13
2019-04-14T14:32:20.451Z,10.43
2019-04-14T14:37:25.234Z,12.67
2019-04-14T14:42:29.853Z,13.43
2019-04-14T14:47:35.704Z,12.03
2019-04-14T14:52:41.207Z,10.30
2019-04-14T14:57:45.898Z,10.30
2019-04-14T15:02:50.702Z,9.80
2019-04-14T15:07:55.429Z,12.47
2019-04-14T15:13:01.213Z,10.63
2019-04-14T15:18:05.946Z,9.27
2019-04-14T15:23:10.500Z,9.17
2019-04-14T15:28:15.769Z,9.07
2019-04-14T15:33:20.650Z,9.00
2019-04-14T15:38:25.315Z,8.70
2019-04-14T15:43:30.864Z,9.23
2019-04-14T15:48:35.433Z,8.20
2019-04-14T15:53:39.994Z,9.10
2019-04-14T15:58:46.765Z,8.43
2019-04-14T16:03:56.046Z,7.77
2019-04-14T16:09:05.071Z,9.60
2019-04-14T16:14:12.910Z,9.97
2019-04-14T16:19:33.914Z,17.63
2019-04-14T16:24:38.374Z,19.73
2019-04-14T16:29:47.072Z,14.10
2019-04-14T16:34:53.343Z,10.27
2019-04-14T16:39:58.217Z,12.57
2019-04-14T16:45:03.098Z,10.20
2019-04-14T16:50:10.507Z,10.27
2019-04-14T17:00:37.122Z,9.83
2019-04-14T17:05:41.932Z,10.13
2019-04-14T17:10:46.499Z,10.73
2019-04-14T17:16:08.108Z,11.33
2019-04-14T17:21:20.277Z,14.10
2019-04-14T17:26:43.639Z,9.33
2019-04-14T17:31:52.783Z,8.73
2019-04-14T17:37:07.988Z,11.17
2019-04-14T17:42:19.161Z,10.17
2019-04-14T17:47:26.463Z,10.20
2019-04-14T17:52:39.812Z,9.57
2019-04-14T17:57:49.271Z,9.23
2019-04-14T18:02:56.142Z,8.17
2019-04-14T18:08:02.430Z,9.03
2019-04-14T18:13:14.304Z,7.93
2019-04-14T18:18:20.528Z,6.93
2019-04-14T18:23:26.654Z,7.83
2019-04-14T18:28:51.771Z,8.10
2019-04-14T18:34:07.033Z,5.53
2019-04-14T18:39:29.110Z,8.17
2019-04-14T18:44:44.338Z,6.87
2019-04-14T18:49:53.332Z,12.93
2019-04-14T18:55:08.743Z,6.60
2019-04-14T19:00:21.188Z,7.22
2019-04-14T19:05:25.735Z,8.97
2019-04-14T19:10:30.266Z,9.07
2019-04-14T19:15:36.724Z,7.63
2019-04-14T19:20:42.839Z,6.63
2019-04-14T19:25:47.530Z,5.83
2019-04-14T19:30:52.988Z,7.53
2019-04-14T19:35:57.932Z,6.07
2019-04-14T19:41:02.640Z,7.13
2019-04-14T19:46:10.056Z,9.17
2019-04-14T19:51:14.704Z,7.20
2019-04-14T19:56:19.253Z,7.10
2019-04-14T20:01:23.845Z,8.47
2019-04-14T20:06:28.390Z,20.77
2019-04-14T20:11:34.016Z,19.47
2019-04-14T20:16:49.384Z,16.43
2019-04-14T20:22:01.448Z,28.73
2019-04-14T20:27:07.770Z,32.90
2019-04-14T20:32:14.158Z,22.97
2019-04-14T20:37:18.693Z,16.20
2019-04-14T20:42:23.521Z,10.40
2019-04-14T20:47:28.109Z,13.87
2019-04-14T20:52:32.629Z,10.90
2019-04-14T20:57:37.274Z,10.93
2019-04-14T21:03:02.668Z,8.57
2019-04-14T21:08:14.697Z,7.43
2019-04-14T21:13:33.121Z,10.13
2019-04-14T21:18:42.285Z,8.57
2019-04-14T21:24:01.582Z,10.47
2019-04-14T21:29:11.105Z,9.80
2019-04-14T21:34:17.364Z,10.27
2019-04-14T21:39:40.646Z,9.20
2019-04-14T21:44:44.789Z,8.73
2019-04-14T21:49:49.214Z,9.10
2019-04-14T21:54:53.748Z,10.70
2019-04-14T22:00:05.690Z,12.17
2019-04-14T22:05:19.219Z,13.07
2019-04-14T22:10:25.427Z,12.47
2019-04-14T22:15:29.918Z,12.83
2019-04-14T22:20:34.349Z,10.77
2019-04-14T22:25:39.783Z,9.93
2019-04-14T22:30:44.336Z,10.67
2019-04-14T22:35:48.827Z,8.77
2019-04-14T22:40:53.399Z,8.57
2019-04-14T22:45:57.847Z,10.40
2019-04-14T22:51:02.402Z,9.23
2019-04-14T22:56:07.886Z,9.17
2019-04-14T23:01:14.041Z,9.90
2019-04-14T23:06:20.202Z,10.27
2019-04-14T23:11:41.079Z,11.27
2019-04-14T23:16:47.254Z,13.30
2019-04-14T23:21:53.389Z,9.47
2019-04-14T23:26:58.047Z,8.27
2019-04-14T23:32:02.544Z,10.73
2019-04-14T23:37:07.139Z,10.03
2019-04-14T23:42:11.619Z,10.63
2019-04-14T23:47:16.253Z,10.57
2019-04-14T23:52:20.758Z,11.10
2019-04-14T23:57:25.248Z,9.53
